sensor_id;sensor_type;location;lat;lon;timestamp;P1;durP1;ratioP1;P2;durP2;ratioP2
85162;SDS011;75527;48.526;9.158;2024-01-11T00:01:45;35.75;;;16.75;;
85162;SDS011;75527;48.526;9.158;2024-01-11T00:04:11;34.50;;;15.35;;
85162;SDS011;75527;48.526;9.158;2024-01-11T00:06:41;38.55;;;16.77;;
85162;SDS011;75527;48.526;9.158;2024-01-11T00:09:07;36.25;;;17.73;;
85162;SDS011;75527;48.526;9.158;2024-01-11T00:11:32;44.45;;;17.35;;
85162;SDS011;75527;48.526;9.158;2024-01-11T00:13:58;45.53;;;18.45;;
85162;SDS011;75527;48.526;9.158;2024-01-11T00:16:23;41.47;;;18.02;;
85162;SDS011;75527;48.526;9.158;2024-01-11T00:18:48;39.50;;;18.15;;
85162;SDS011;75527;48.526;9.158;2024-01-11T00:21:14;38.28;;;16.60;;
85162;SDS011;75527;48.526;9.158;2024-01-11T00:23:39;38.65;;;16.58;;
85162;SDS011;75527;48.526;9.158;2024-01-11T00:26:04;40.25;;;17.70;;
85162;SDS011;75527;48.526;9.158;2024-01-11T00:28:30;44.80;;;17.63;;
85162;SDS011;75527;48.526;9.158;2024-01-11T00:30:55;42.57;;;18.23;;
85162;SDS011;75527;48.526;9.158;2024-01-11T00:33:20;39.03;;;17.83;;
85162;SDS011;75527;48.526;9.158;2024-01-11T00:35:45;42.67;;;18.63;;
85162;SDS011;75527;48.526;9.158;2024-01-11T00:38:11;46.67;;;17.73;;
85162;SDS011;75527;48.526;9.158;2024-01-11T00:40:36;35.10;;;15.53;;
85162;SDS011;75527;48.526;9.158;2024-01-11T00:43:01;43.40;;;16.67;;
85162;SDS011;75527;48.526;9.158;2024-01-11T00:45:27;34.28;;;14.35;;
85162;SDS011;75527;48.526;9.158;2024-01-11T00:47:52;33.33;;;14.43;;
85162;SDS011;75527;48.526;9.158;2024-01-11T00:50:17;31.70;;;13.73;;
85162;SDS011;75527;48.526;9.158;2024-01-11T00:52:42;30.57;;;14.30;;
85162;SDS011;75527;48.526;9.158;2024-01-11T00:55:08;32.13;;;13.95;;
85162;SDS011;75527;48.526;9.158;2024-01-11T00:57:33;32.22;;;13.23;;
85162;SDS011;75527;48.526;9.158;2024-01-11T00:59:58;29.27;;;12.95;;
85162;SDS011;75527;48.526;9.158;2024-01-11T01:02:24;25.80;;;12.88;;
85162;SDS011;75527;48.526;9.158;2024-01-11T01:04:49;32.20;;;12.63;;
85162;SDS011;75527;48.526;9.158;2024-01-11T01:07:14;33.47;;;13.60;;
85162;SDS011;75527;48.526;9.158;2024-01-11T01:09:39;35.53;;;14.35;;
85162;SDS011;75527;48.526;9.158;2024-01-11T01:12:05;32.95;;;15.23;;
85162;SDS011;75527;48.526;9.158;2024-01-11T01:14:30;32.92;;;13.00;;
85162;SDS011;75527;48.526;9.158;2024-01-11T01:16:56;51.35;;;18.60;;
85162;SDS011;75527;48.526;9.158;2024-01-11T01:19:21;39.20;;;15.68;;
85162;SDS011;75527;48.526;9.158;2024-01-11T01:21:46;28.02;;;13.57;;
85162;SDS011;75527;48.526;9.158;2024-01-11T01:24:11;37.90;;;13.73;;
85162;SDS011;75527;48.526;9.158;2024-01-11T01:26:37;34.43;;;15.23;;
85162;SDS011;75527;48.526;9.158;2024-01-11T01:29:02;28.70;;;12.52;;
85162;SDS011;75527;48.526;9.158;2024-01-11T01:31:27;28.43;;;13.70;;
85162;SDS011;75527;48.526;9.158;2024-01-11T01:33:53;31.38;;;14.00;;
85162;SDS011;75527;48.526;9.158;2024-01-11T01:36:18;25.98;;;13.70;;
85162;SDS011;75527;48.526;9.158;2024-01-11T01:38:44;34.05;;;14.23;;
85162;SDS011;75527;48.526;9.158;2024-01-11T01:41:10;36.35;;;15.68;;
85162;SDS011;75527;48.526;9.158;2024-01-11T01:43:35;40.78;;;16.10;;
85162;SDS011;75527;48.526;9.158;2024-01-11T01:46:01;35.87;;;16.17;;
85162;SDS011;75527;48.526;9.158;2024-01-11T01:48:27;35.90;;;15.20;;
85162;SDS011;75527;48.526;9.158;2024-01-11T01:50:53;36.20;;;15.02;;
85162;SDS011;75527;48.526;9.158;2024-01-11T01:53:20;31.60;;;14.98;;
85162;SDS011;75527;48.526;9.158;2024-01-11T01:55:47;29.30;;;13.85;;
85162;SDS011;75527;48.526;9.158;2024-01-11T01:58:13;35.00;;;14.25;;
85162;SDS011;75527;48.526;9.158;2024-01-11T02:00:40;31.40;;;14.70;;
85162;SDS011;75527;48.526;9.158;2024-01-11T02:03:07;34.60;;;13.27;;
85162;SDS011;75527;48.526;9.158;2024-01-11T02:05:33;40.10;;;15.02;;
85162;SDS011;75527;48.526;9.158;2024-01-11T02:07:59;34.05;;;13.75;;
85162;SDS011;75527;48.526;9.158;2024-01-11T02:10:29;29.23;;;13.93;;
85162;SDS011;75527;48.526;9.158;2024-01-11T02:12:57;33.03;;;15.52;;
85162;SDS011;75527;48.526;9.158;2024-01-11T02:15:23;40.08;;;17.05;;
85162;SDS011;75527;48.526;9.158;2024-01-11T02:17:49;36.65;;;14.90;;
85162;SDS011;75527;48.526;9.158;2024-01-11T02:20:14;32.83;;;14.88;;
85162;SDS011;75527;48.526;9.158;2024-01-11T02:22:40;36.40;;;13.40;;
85162;SDS011;75527;48.526;9.158;2024-01-11T02:25:09;37.45;;;15.73;;
85162;SDS011;75527;48.526;9.158;2024-01-11T02:27:49;34.60;;;14.77;;
85162;SDS011;75527;48.526;9.158;2024-01-11T02:30:15;31.42;;;14.43;;
85162;SDS011;75527;48.526;9.158;2024-01-11T02:32:45;37.40;;;16.90;;
85162;SDS011;75527;48.526;9.158;2024-01-11T02:35:12;45.22;;;16.08;;
85162;SDS011;75527;48.526;9.158;2024-01-11T02:37:38;32.08;;;15.23;;
85162;SDS011;75527;48.526;9.158;2024-01-11T02:40:04;30.55;;;13.10;;
85162;SDS011;75527;48.526;9.158;2024-01-11T02:42:34;29.58;;;14.85;;
85162;SDS011;75527;48.526;9.158;2024-01-11T02:45:00;32.25;;;15.60;;
85162;SDS011;75527;48.526;9.158;2024-01-11T02:47:25;29.13;;;12.90;;
85162;SDS011;75527;48.526;9.158;2024-01-11T02:49:51;28.80;;;12.10;;
85162;SDS011;75527;48.526;9.158;2024-01-11T02:52:16;31.75;;;13.38;;
85162;SDS011;75527;48.526;9.158;2024-01-11T02:54:41;32.03;;;13.85;;
85162;SDS011;75527;48.526;9.158;2024-01-11T02:57:07;30.73;;;13.27;;
85162;SDS011;75527;48.526;9.158;2024-01-11T02:59:32;25.47;;;12.60;;
85162;SDS011;75527;48.526;9.158;2024-01-11T03:01:57;32.17;;;14.35;;
85162;SDS011;75527;48.526;9.158;2024-01-11T03:04:23;27.50;;;12.75;;
85162;SDS011;75527;48.526;9.158;2024-01-11T03:06:48;34.88;;;14.68;;
85162;SDS011;75527;48.526;9.158;2024-01-11T03:09:13;28.42;;;12.05;;
85162;SDS011;75527;48.526;9.158;2024-01-11T03:11:39;30.95;;;12.10;;
85162;SDS011;75527;48.526;9.158;2024-01-11T03:14:04;28.05;;;13.98;;
85162;SDS011;75527;48.526;9.158;2024-01-11T03:16:29;34.90;;;14.68;;
85162;SDS011;75527;48.526;9.158;2024-01-11T03:18:54;27.77;;;13.23;;
85162;SDS011;75527;48.526;9.158;2024-01-11T03:21:20;29.25;;;13.98;;
85162;SDS011;75527;48.526;9.158;2024-01-11T03:23:45;31.13;;;13.25;;
85162;SDS011;75527;48.526;9.158;2024-01-11T03:26:16;27.30;;;12.82;;
85162;SDS011;75527;48.526;9.158;2024-01-11T03:28:42;31.27;;;12.82;;
85162;SDS011;75527;48.526;9.158;2024-01-11T03:31:09;36.47;;;13.43;;
85162;SDS011;75527;48.526;9.158;2024-01-11T03:33:35;32.20;;;14.15;;
85162;SDS011;75527;48.526;9.158;2024-01-11T03:36:06;29.50;;;12.75;;
85162;SDS011;75527;48.526;9.158;2024-01-11T03:38:33;36.42;;;14.25;;
85162;SDS011;75527;48.526;9.158;2024-01-11T03:40:58;33.85;;;12.98;;
85162;SDS011;75527;48.526;9.158;2024-01-11T03:43:23;26.17;;;12.68;;
85162;SDS011;75527;48.526;9.158;2024-01-11T03:45:48;28.17;;;12.50;;
85162;SDS011;75527;48.526;9.158;2024-01-11T03:48:14;32.15;;;12.88;;
85162;SDS011;75527;48.526;9.158;2024-01-11T03:50:39;27.83;;;13.33;;
85162;SDS011;75527;48.526;9.158;2024-01-11T03:53:04;31.33;;;12.93;;
85162;SDS011;75527;48.526;9.158;2024-01-11T03:55:30;31.92;;;14.07;;
85162;SDS011;75527;48.526;9.158;2024-01-11T03:57:55;30.57;;;13.53;;
85162;SDS011;75527;48.526;9.158;2024-01-11T04:00:20;31.05;;;14.00;;
85162;SDS011;75527;48.526;9.158;2024-01-11T04:02:45;32.97;;;12.27;;
85162;SDS011;75527;48.526;9.158;2024-01-11T04:05:11;30.88;;;12.73;;
85162;SDS011;75527;48.526;9.158;2024-01-11T04:07:36;28.25;;;13.35;;
85162;SDS011;75527;48.526;9.158;2024-01-11T04:10:01;33.33;;;13.97;;
85162;SDS011;75527;48.526;9.158;2024-01-11T04:12:27;32.80;;;14.05;;
85162;SDS011;75527;48.526;9.158;2024-01-11T04:14:52;28.27;;;12.20;;
85162;SDS011;75527;48.526;9.158;2024-01-11T04:17:17;27.37;;;12.13;;
85162;SDS011;75527;48.526;9.158;2024-01-11T04:19:43;31.52;;;12.68;;
85162;SDS011;75527;48.526;9.158;2024-01-11T04:22:08;45.55;;;15.07;;
85162;SDS011;75527;48.526;9.158;2024-01-11T04:24:33;28.58;;;14.00;;
85162;SDS011;75527;48.526;9.158;2024-01-11T04:26:58;31.15;;;12.98;;
85162;SDS011;75527;48.526;9.158;2024-01-11T04:29:24;29.50;;;13.40;;
85162;SDS011;75527;48.526;9.158;2024-01-11T04:31:49;30.17;;;14.13;;
85162;SDS011;75527;48.526;9.158;2024-01-11T04:34:14;29.83;;;12.87;;
85162;SDS011;75527;48.526;9.158;2024-01-11T04:36:40;31.23;;;13.63;;
85162;SDS011;75527;48.526;9.158;2024-01-11T04:39:05;28.63;;;12.70;;
85162;SDS011;75527;48.526;9.158;2024-01-11T04:41:32;31.70;;;13.85;;
85162;SDS011;75527;48.526;9.158;2024-01-11T04:44:00;28.38;;;12.93;;
85162;SDS011;75527;48.526;9.158;2024-01-11T04:46:25;31.57;;;12.60;;
85162;SDS011;75527;48.526;9.158;2024-01-11T04:48:50;31.58;;;13.85;;
85162;SDS011;75527;48.526;9.158;2024-01-11T04:51:17;32.78;;;13.20;;
85162;SDS011;75527;48.526;9.158;2024-01-11T04:53:43;31.83;;;15.57;;
85162;SDS011;75527;48.526;9.158;2024-01-11T04:56:11;29.85;;;14.93;;
85162;SDS011;75527;48.526;9.158;2024-01-11T04:58:39;28.75;;;14.10;;
85162;SDS011;75527;48.526;9.158;2024-01-11T05:01:05;30.98;;;13.55;;
85162;SDS011;75527;48.526;9.158;2024-01-11T05:03:31;27.70;;;13.85;;
85162;SDS011;75527;48.526;9.158;2024-01-11T05:05:57;33.05;;;13.93;;
85162;SDS011;75527;48.526;9.158;2024-01-11T05:08:25;35.88;;;15.32;;
85162;SDS011;75527;48.526;9.158;2024-01-11T05:10:51;38.05;;;14.27;;
85162;SDS011;75527;48.526;9.158;2024-01-11T05:13:17;34.33;;;13.18;;
85162;SDS011;75527;48.526;9.158;2024-01-11T05:15:42;37.58;;;15.95;;
85162;SDS011;75527;48.526;9.158;2024-01-11T05:18:08;32.25;;;14.02;;
85162;SDS011;75527;48.526;9.158;2024-01-11T05:20:33;39.03;;;14.98;;
85162;SDS011;75527;48.526;9.158;2024-01-11T05:22:59;31.08;;;13.90;;
85162;SDS011;75527;48.526;9.158;2024-01-11T05:25:25;29.20;;;13.43;;
85162;SDS011;75527;48.526;9.158;2024-01-11T05:27:51;36.42;;;14.15;;
85162;SDS011;75527;48.526;9.158;2024-01-11T05:30:17;35.38;;;14.55;;
85162;SDS011;75527;48.526;9.158;2024-01-11T05:32:42;29.95;;;13.30;;
85162;SDS011;75527;48.526;9.158;2024-01-11T05:35:07;31.83;;;13.35;;
85162;SDS011;75527;48.526;9.158;2024-01-11T05:37:33;35.58;;;14.52;;
85162;SDS011;75527;48.526;9.158;2024-01-11T05:39:58;33.03;;;13.48;;
85162;SDS011;75527;48.526;9.158;2024-01-11T05:42:23;27.05;;;12.55;;
85162;SDS011;75527;48.526;9.158;2024-01-11T05:44:50;34.15;;;13.50;;
85162;SDS011;75527;48.526;9.158;2024-01-11T05:47:16;30.80;;;14.65;;
85162;SDS011;75527;48.526;9.158;2024-01-11T05:49:42;31.95;;;13.55;;
85162;SDS011;75527;48.526;9.158;2024-01-11T05:52:07;30.75;;;12.95;;
85162;SDS011;75527;48.526;9.158;2024-01-11T05:54:33;32.53;;;13.27;;
85162;SDS011;75527;48.526;9.158;2024-01-11T05:56:58;36.40;;;13.20;;
85162;SDS011;75527;48.526;9.158;2024-01-11T05:59:24;33.15;;;13.70;;
85162;SDS011;75527;48.526;9.158;2024-01-11T06:01:50;28.85;;;12.32;;
85162;SDS011;75527;48.526;9.158;2024-01-11T06:04:16;35.40;;;13.60;;
85162;SDS011;75527;48.526;9.158;2024-01-11T06:06:41;28.80;;;13.30;;
85162;SDS011;75527;48.526;9.158;2024-01-11T06:09:07;39.63;;;13.60;;
85162;SDS011;75527;48.526;9.158;2024-01-11T06:11:33;37.90;;;14.50;;
85162;SDS011;75527;48.526;9.158;2024-01-11T06:13:58;33.25;;;14.52;;
85162;SDS011;75527;48.526;9.158;2024-01-11T06:16:24;33.15;;;13.70;;
85162;SDS011;75527;48.526;9.158;2024-01-11T06:18:50;33.42;;;13.15;;
85162;SDS011;75527;48.526;9.158;2024-01-11T06:21:15;35.13;;;12.93;;
85162;SDS011;75527;48.526;9.158;2024-01-11T06:23:42;35.75;;;13.27;;
85162;SDS011;75527;48.526;9.158;2024-01-11T06:26:08;34.35;;;13.30;;
85162;SDS011;75527;48.526;9.158;2024-01-11T06:28:33;32.35;;;13.93;;
85162;SDS011;75527;48.526;9.158;2024-01-11T06:30:59;33.10;;;14.18;;
85162;SDS011;75527;48.526;9.158;2024-01-11T06:33:24;27.60;;;12.27;;
85162;SDS011;75527;48.526;9.158;2024-01-11T06:35:49;32.17;;;13.00;;
85162;SDS011;75527;48.526;9.158;2024-01-11T06:38:15;29.83;;;12.63;;
85162;SDS011;75527;48.526;9.158;2024-01-11T06:40:40;35.53;;;13.60;;
85162;SDS011;75527;48.526;9.158;2024-01-11T06:43:06;31.85;;;13.32;;
85162;SDS011;75527;48.526;9.158;2024-01-11T06:45:31;33.17;;;14.27;;
85162;SDS011;75527;48.526;9.158;2024-01-11T06:47:57;31.40;;;14.37;;
85162;SDS011;75527;48.526;9.158;2024-01-11T06:50:22;26.05;;;11.48;;
85162;SDS011;75527;48.526;9.158;2024-01-11T06:52:47;31.07;;;14.83;;
85162;SDS011;75527;48.526;9.158;2024-01-11T06:55:12;32.10;;;13.03;;
85162;SDS011;75527;48.526;9.158;2024-01-11T06:57:38;28.50;;;14.65;;
85162;SDS011;75527;48.526;9.158;2024-01-11T07:00:03;33.00;;;13.77;;
85162;SDS011;75527;48.526;9.158;2024-01-11T07:02:29;27.83;;;11.95;;
85162;SDS011;75527;48.526;9.158;2024-01-11T07:04:54;29.57;;;11.27;;
85162;SDS011;75527;48.526;9.158;2024-01-11T07:07:20;28.77;;;11.55;;
85162;SDS011;75527;48.526;9.158;2024-01-11T07:09:45;32.90;;;14.37;;
85162;SDS011;75527;48.526;9.158;2024-01-11T07:12:10;24.02;;;11.55;;
85162;SDS011;75527;48.526;9.158;2024-01-11T07:14:36;32.30;;;13.05;;
85162;SDS011;75527;48.526;9.158;2024-01-11T07:17:01;31.95;;;13.50;;
85162;SDS011;75527;48.526;9.158;2024-01-11T07:19:27;29.13;;;12.65;;
85162;SDS011;75527;48.526;9.158;2024-01-11T07:21:52;33.58;;;15.20;;
85162;SDS011;75527;48.526;9.158;2024-01-11T07:24:18;32.35;;;12.85;;
85162;SDS011;75527;48.526;9.158;2024-01-11T07:26:43;34.17;;;13.57;;
85162;SDS011;75527;48.526;9.158;2024-01-11T07:29:09;27.30;;;11.50;;
85162;SDS011;75527;48.526;9.158;2024-01-11T07:31:34;33.35;;;13.23;;
85162;SDS011;75527;48.526;9.158;2024-01-11T07:33:59;29.92;;;11.73;;
85162;SDS011;75527;48.526;9.158;2024-01-11T07:36:25;35.40;;;13.50;;
85162;SDS011;75527;48.526;9.158;2024-01-11T07:38:50;42.03;;;15.02;;
85162;SDS011;75527;48.526;9.158;2024-01-11T07:41:16;34.20;;;15.07;;
85162;SDS011;75527;48.526;9.158;2024-01-11T07:43:41;31.50;;;12.48;;
85162;SDS011;75527;48.526;9.158;2024-01-11T07:46:06;28.52;;;12.95;;
85162;SDS011;75527;48.526;9.158;2024-01-11T07:48:32;29.55;;;13.05;;
85162;SDS011;75527;48.526;9.158;2024-01-11T07:50:58;31.00;;;14.45;;
85162;SDS011;75527;48.526;9.158;2024-01-11T07:53:24;32.55;;;13.32;;
85162;SDS011;75527;48.526;9.158;2024-01-11T07:55:50;34.03;;;14.60;;
85162;SDS011;75527;48.526;9.158;2024-01-11T07:58:16;31.95;;;14.35;;
85162;SDS011;75527;48.526;9.158;2024-01-11T08:00:41;28.85;;;14.60;;
85162;SDS011;75527;48.526;9.158;2024-01-11T08:03:07;32.70;;;14.43;;
85162;SDS011;75527;48.526;9.158;2024-01-11T08:05:33;34.92;;;13.48;;
85162;SDS011;75527;48.526;9.158;2024-01-11T08:07:59;35.17;;;14.20;;
85162;SDS011;75527;48.526;9.158;2024-01-11T08:10:26;30.58;;;13.50;;
85162;SDS011;75527;48.526;9.158;2024-01-11T08:12:52;36.63;;;16.90;;
85162;SDS011;75527;48.526;9.158;2024-01-11T08:15:17;36.88;;;14.25;;
85162;SDS011;75527;48.526;9.158;2024-01-11T08:17:45;30.73;;;14.25;;
85162;SDS011;75527;48.526;9.158;2024-01-11T08:20:11;29.95;;;14.25;;
85162;SDS011;75527;48.526;9.158;2024-01-11T08:22:36;35.78;;;14.05;;
85162;SDS011;75527;48.526;9.158;2024-01-11T08:25:05;32.58;;;14.25;;
85162;SDS011;75527;48.526;9.158;2024-01-11T08:27:31;35.75;;;15.57;;
85162;SDS011;75527;48.526;9.158;2024-01-11T08:29:57;29.90;;;14.05;;
85162;SDS011;75527;48.526;9.158;2024-01-11T08:32:22;37.05;;;14.55;;
85162;SDS011;75527;48.526;9.158;2024-01-11T08:34:47;33.10;;;14.45;;
85162;SDS011;75527;48.526;9.158;2024-01-11T08:37:13;37.20;;;14.88;;
85162;SDS011;75527;48.526;9.158;2024-01-11T08:39:39;35.50;;;15.95;;
85162;SDS011;75527;48.526;9.158;2024-01-11T08:42:05;34.88;;;14.88;;
85162;SDS011;75527;48.526;9.158;2024-01-11T08:44:30;32.42;;;14.45;;
85162;SDS011;75527;48.526;9.158;2024-01-11T08:46:56;39.87;;;17.57;;
85162;SDS011;75527;48.526;9.158;2024-01-11T08:49:22;41.58;;;16.20;;
85162;SDS011;75527;48.526;9.158;2024-01-11T08:51:47;42.40;;;16.98;;
85162;SDS011;75527;48.526;9.158;2024-01-11T08:54:13;41.97;;;17.75;;
85162;SDS011;75527;48.526;9.158;2024-01-11T08:56:41;41.72;;;15.25;;
85162;SDS011;75527;48.526;9.158;2024-01-11T08:59:07;37.40;;;16.90;;
85162;SDS011;75527;48.526;9.158;2024-01-11T09:01:33;34.33;;;16.77;;
85162;SDS011;75527;48.526;9.158;2024-01-11T09:04:00;39.75;;;15.45;;
85162;SDS011;75527;48.526;9.158;2024-01-11T09:06:26;42.45;;;16.67;;
85162;SDS011;75527;48.526;9.158;2024-01-11T09:08:51;34.53;;;13.93;;
85162;SDS011;75527;48.526;9.158;2024-01-11T09:11:17;35.42;;;16.85;;
85162;SDS011;75527;48.526;9.158;2024-01-11T09:13:42;38.50;;;16.80;;
85162;SDS011;75527;48.526;9.158;2024-01-11T09:16:08;42.15;;;16.23;;
85162;SDS011;75527;48.526;9.158;2024-01-11T09:18:34;40.25;;;16.90;;
85162;SDS011;75527;48.526;9.158;2024-01-11T09:21:00;48.58;;;19.50;;
85162;SDS011;75527;48.526;9.158;2024-01-11T09:23:25;42.63;;;17.58;;
85162;SDS011;75527;48.526;9.158;2024-01-11T09:25:50;40.97;;;17.13;;
85162;SDS011;75527;48.526;9.158;2024-01-11T09:28:16;51.90;;;17.73;;
85162;SDS011;75527;48.526;9.158;2024-01-11T09:30:41;39.55;;;17.33;;
85162;SDS011;75527;48.526;9.158;2024-01-11T09:33:06;38.13;;;17.00;;
85162;SDS011;75527;48.526;9.158;2024-01-11T09:35:32;39.92;;;17.65;;
85162;SDS011;75527;48.526;9.158;2024-01-11T09:37:57;38.50;;;18.23;;
85162;SDS011;75527;48.526;9.158;2024-01-11T09:40:23;40.87;;;16.97;;
85162;SDS011;75527;48.526;9.158;2024-01-11T09:42:48;38.33;;;15.52;;
85162;SDS011;75527;48.526;9.158;2024-01-11T09:45:14;34.50;;;16.15;;
85162;SDS011;75527;48.526;9.158;2024-01-11T09:47:41;44.72;;;18.23;;
85162;SDS011;75527;48.526;9.158;2024-01-11T09:50:07;44.67;;;18.98;;
85162;SDS011;75527;48.526;9.158;2024-01-11T09:52:33;43.72;;;17.35;;
85162;SDS011;75527;48.526;9.158;2024-01-11T09:54:59;48.75;;;17.80;;
85162;SDS011;75527;48.526;9.158;2024-01-11T09:57:29;48.65;;;19.63;;
85162;SDS011;75527;48.526;9.158;2024-01-11T10:00:00;40.40;;;17.85;;
85162;SDS011;75527;48.526;9.158;2024-01-11T10:02:32;46.10;;;18.75;;
85162;SDS011;75527;48.526;9.158;2024-01-11T10:04:57;51.83;;;18.15;;
85162;SDS011;75527;48.526;9.158;2024-01-11T10:07:23;46.60;;;19.48;;
85162;SDS011;75527;48.526;9.158;2024-01-11T10:09:50;48.45;;;19.70;;
85162;SDS011;75527;48.526;9.158;2024-01-11T10:12:17;47.65;;;19.90;;
85162;SDS011;75527;48.526;9.158;2024-01-11T10:14:45;43.05;;;18.48;;
85162;SDS011;75527;48.526;9.158;2024-01-11T10:17:11;53.75;;;21.35;;
85162;SDS011;75527;48.526;9.158;2024-01-11T10:19:36;46.38;;;19.92;;
85162;SDS011;75527;48.526;9.158;2024-01-11T10:22:01;55.10;;;18.73;;
85162;SDS011;75527;48.526;9.158;2024-01-11T10:24:28;44.13;;;19.35;;
85162;SDS011;75527;48.526;9.158;2024-01-11T10:26:56;46.53;;;21.35;;
85162;SDS011;75527;48.526;9.158;2024-01-11T10:29:27;48.95;;;19.55;;
85162;SDS011;75527;48.526;9.158;2024-01-11T10:31:55;55.63;;;21.33;;
85162;SDS011;75527;48.526;9.158;2024-01-11T10:34:21;42.55;;;19.65;;
85162;SDS011;75527;48.526;9.158;2024-01-11T10:36:48;52.25;;;20.70;;
85162;SDS011;75527;48.526;9.158;2024-01-11T10:39:14;46.30;;;18.90;;
85162;SDS011;75527;48.526;9.158;2024-01-11T10:41:42;51.15;;;18.63;;
85162;SDS011;75527;48.526;9.158;2024-01-11T10:44:18;42.90;;;20.52;;
85162;SDS011;75527;48.526;9.158;2024-01-11T10:46:45;50.55;;;19.67;;
85162;SDS011;75527;48.526;9.158;2024-01-11T10:49:11;47.65;;;18.90;;
85162;SDS011;75527;48.526;9.158;2024-01-11T10:51:42;46.17;;;19.80;;
85162;SDS011;75527;48.526;9.158;2024-01-11T10:54:14;45.33;;;19.55;;
85162;SDS011;75527;48.526;9.158;2024-01-11T10:56:40;47.05;;;20.13;;
85162;SDS011;75527;48.526;9.158;2024-01-11T10:59:08;49.50;;;19.23;;
85162;SDS011;75527;48.526;9.158;2024-01-11T11:01:35;42.92;;;18.13;;
85162;SDS011;75527;48.526;9.158;2024-01-11T11:04:04;46.80;;;21.08;;
85162;SDS011;75527;48.526;9.158;2024-01-11T11:06:31;47.22;;;19.40;;
85162;SDS011;75527;48.526;9.158;2024-01-11T11:08:57;42.40;;;19.85;;
85162;SDS011;75527;48.526;9.158;2024-01-11T11:11:23;49.95;;;19.80;;
85162;SDS011;75527;48.526;9.158;2024-01-11T11:13:49;42.78;;;19.63;;
85162;SDS011;75527;48.526;9.158;2024-01-11T11:16:16;45.50;;;18.98;;
85162;SDS011;75527;48.526;9.158;2024-01-11T11:18:41;48.40;;;19.17;;
85162;SDS011;75527;48.526;9.158;2024-01-11T11:21:10;47.17;;;21.15;;
85162;SDS011;75527;48.526;9.158;2024-01-11T11:23:38;41.38;;;17.70;;
85162;SDS011;75527;48.526;9.158;2024-01-11T11:26:05;42.63;;;18.83;;
85162;SDS011;75527;48.526;9.158;2024-01-11T11:28:33;40.40;;;20.00;;
85162;SDS011;75527;48.526;9.158;2024-01-11T11:30:59;51.85;;;22.00;;
85162;SDS011;75527;48.526;9.158;2024-01-11T11:33:27;45.78;;;20.95;;
85162;SDS011;75527;48.526;9.158;2024-01-11T11:35:54;42.55;;;20.80;;
85162;SDS011;75527;48.526;9.158;2024-01-11T11:38:27;46.13;;;21.10;;
85162;SDS011;75527;48.526;9.158;2024-01-11T11:40:56;39.45;;;20.67;;
85162;SDS011;75527;48.526;9.158;2024-01-11T11:43:23;46.28;;;19.90;;
85162;SDS011;75527;48.526;9.158;2024-01-11T11:45:51;48.83;;;21.42;;
85162;SDS011;75527;48.526;9.158;2024-01-11T11:53:36;44.30;;;20.77;;
85162;SDS011;75527;48.526;9.158;2024-01-11T11:56:02;41.85;;;20.85;;
85162;SDS011;75527;48.526;9.158;2024-01-11T11:58:31;46.50;;;21.65;;
85162;SDS011;75527;48.526;9.158;2024-01-11T12:00:58;49.30;;;21.35;;
85162;SDS011;75527;48.526;9.158;2024-01-11T12:03:46;46.97;;;22.05;;
85162;SDS011;75527;48.526;9.158;2024-01-11T12:06:14;44.75;;;20.75;;
85162;SDS011;75527;48.526;9.158;2024-01-11T12:08:41;44.30;;;20.00;;
85162;SDS011;75527;48.526;9.158;2024-01-11T12:11:08;50.28;;;21.35;;
85162;SDS011;75527;48.526;9.158;2024-01-11T12:13:33;38.53;;;19.52;;
85162;SDS011;75527;48.526;9.158;2024-01-11T12:16:00;53.00;;;22.17;;
85162;SDS011;75527;48.526;9.158;2024-01-11T12:18:25;50.88;;;20.77;;
85162;SDS011;75527;48.526;9.158;2024-01-11T12:20:51;46.15;;;19.85;;
85162;SDS011;75527;48.526;9.158;2024-01-11T12:23:18;46.78;;;22.23;;
85162;SDS011;75527;48.526;9.158;2024-01-11T12:25:43;45.03;;;21.50;;
85162;SDS011;75527;48.526;9.158;2024-01-11T12:28:09;45.70;;;22.33;;
85162;SDS011;75527;48.526;9.158;2024-01-11T12:30:34;46.10;;;19.55;;
85162;SDS011;75527;48.526;9.158;2024-01-11T12:32:59;38.25;;;19.88;;
85162;SDS011;75527;48.526;9.158;2024-01-11T12:35:28;44.13;;;19.77;;
85162;SDS011;75527;48.526;9.158;2024-01-11T12:40:20;47.80;;;20.58;;
85162;SDS011;75527;48.526;9.158;2024-01-11T12:42:45;43.05;;;20.33;;
85162;SDS011;75527;48.526;9.158;2024-01-11T12:45:11;46.30;;;21.95;;
85162;SDS011;75527;48.526;9.158;2024-01-11T12:47:36;43.55;;;19.75;;
85162;SDS011;75527;48.526;9.158;2024-01-11T12:50:03;44.30;;;20.75;;
85162;SDS011;75527;48.526;9.158;2024-01-11T12:52:28;46.70;;;22.50;;
85162;SDS011;75527;48.526;9.158;2024-01-11T12:54:55;47.13;;;22.52;;
85162;SDS011;75527;48.526;9.158;2024-01-11T12:57:21;46.90;;;23.15;;
85162;SDS011;75527;48.526;9.158;2024-01-11T12:59:47;41.63;;;20.27;;
85162;SDS011;75527;48.526;9.158;2024-01-11T13:02:13;44.78;;;21.73;;
85162;SDS011;75527;48.526;9.158;2024-01-11T13:04:39;50.10;;;22.30;;
85162;SDS011;75527;48.526;9.158;2024-01-11T13:07:05;44.97;;;20.85;;
85162;SDS011;75527;48.526;9.158;2024-01-11T13:09:32;45.25;;;21.40;;
85162;SDS011;75527;48.526;9.158;2024-01-11T13:11:57;43.80;;;22.55;;
85162;SDS011;75527;48.526;9.158;2024-01-11T13:14:23;48.65;;;21.55;;
85162;SDS011;75527;48.526;9.158;2024-01-11T13:16:48;39.70;;;19.92;;
85162;SDS011;75527;48.526;9.158;2024-01-11T13:19:14;50.40;;;23.08;;
85162;SDS011;75527;48.526;9.158;2024-01-11T13:21:39;46.58;;;22.85;;
85162;SDS011;75527;48.526;9.158;2024-01-11T13:24:06;50.25;;;22.35;;
85162;SDS011;75527;48.526;9.158;2024-01-11T13:26:32;48.70;;;22.65;;
85162;SDS011;75527;48.526;9.158;2024-01-11T13:28:58;49.45;;;24.00;;
85162;SDS011;75527;48.526;9.158;2024-01-11T13:31:23;46.00;;;22.98;;
85162;SDS011;75527;48.526;9.158;2024-01-11T13:33:48;42.50;;;20.92;;
85162;SDS011;75527;48.526;9.158;2024-01-11T13:36:14;48.17;;;21.55;;
85162;SDS011;75527;48.526;9.158;2024-01-11T13:38:40;45.95;;;20.50;;
85162;SDS011;75527;48.526;9.158;2024-01-11T13:41:06;50.13;;;21.10;;
85162;SDS011;75527;48.526;9.158;2024-01-11T13:43:34;48.78;;;21.02;;
85162;SDS011;75527;48.526;9.158;2024-01-11T13:46:00;56.92;;;23.33;;
85162;SDS011;75527;48.526;9.158;2024-01-11T13:48:29;49.60;;;21.30;;
85162;SDS011;75527;48.526;9.158;2024-01-11T13:50:56;45.97;;;21.73;;
85162;SDS011;75527;48.526;9.158;2024-01-11T13:53:21;44.25;;;21.48;;
85162;SDS011;75527;48.526;9.158;2024-01-11T13:55:47;44.47;;;20.25;;
85162;SDS011;75527;48.526;9.158;2024-01-11T13:58:13;42.25;;;20.77;;
85162;SDS011;75527;48.526;9.158;2024-01-11T14:00:39;40.95;;;19.98;;
85162;SDS011;75527;48.526;9.158;2024-01-11T14:03:04;49.63;;;21.65;;
85162;SDS011;75527;48.526;9.158;2024-01-11T14:05:30;48.17;;;21.83;;
85162;SDS011;75527;48.526;9.158;2024-01-11T14:07:55;46.97;;;21.25;;
85162;SDS011;75527;48.526;9.158;2024-01-11T14:10:24;43.67;;;22.08;;
85162;SDS011;75527;48.526;9.158;2024-01-11T14:12:49;46.35;;;21.85;;
85162;SDS011;75527;48.526;9.158;2024-01-11T14:15:14;46.88;;;20.77;;
85162;SDS011;75527;48.526;9.158;2024-01-11T14:17:40;38.55;;;21.23;;
85162;SDS011;75527;48.526;9.158;2024-01-11T14:20:05;41.55;;;20.90;;
85162;SDS011;75527;48.526;9.158;2024-01-11T14:22:36;44.15;;;20.90;;